Tiempo atmosférico en la estación meteorológica de Adra,club Naútico, Almería (8 m.)



Fecha
DESCASC
Temp. máxima en grados centígrados (hora)
DESCASC
Temp. mínima en grados centígrados (hora)
DESCASC
Temp. media en grados centígrados
DESCASC
Racha de viento máxima en m/sg (hora)
DESCASC
Velocidad máxima media en intervalos de 10 minutos(hora)
DESCASC
Precipitaciones diarias en mm
DESCASC
Precipitaciones de 00:00 a 06:00 en mm
DESCASC
Precipitaciones de 06:00 a 12:00 en mm
DESCASC
Precipitaciones de 12:00 a 18:00 en mm
DESCASC
Precipitaciones de 18:00 a 24:00 en mm
DESCASC

Gráficas

Temp. máximas Temp. mínimas Temp. medias Precipitaciones Rachas de viento máximas Velocidades máximas media en intervalos de 10 minutos

Datos horarios

Fecha y hora oficial Temperatura (ºC) Velocidad del viento (km/h) Dirección del viento Racha (km/h) Dirección de racha Precipitación (mm) Presión (hPa) Tendencia (hPa) Humedad (%)
2018-01-16 00:00:00 -- -- -- -- -- -- -- -- --
2018-01-15 23:00:00 -- -- -- -- -- -- -- -- --
2018-01-15 22:00:00 10.4 4 Nordeste 9 Norte 0 1032.6 2.1 69
2018-01-15 21:00:00 11.2 2 Norte 9 Norte 0 1031.8 2.4 66
2018-01-15 20:00:00 11.6 5 Norte 11 Norte 0 1031.1 2.5 66
2018-01-15 19:00:00 11.4 3 Norte 9 Noroeste 0 1030.5 3.4 67
2018-01-15 18:00:00 11.3 4 Norte 8 Noroeste 0 1029.4 3 67
2018-01-15 17:00:00 12.4 2 Noroeste 9 Oeste 0 1028.6 3 64
2018-01-15 16:00:00 14.9 2 Sudoeste 10 Sudoeste 0 1027.1 2.3 56
2018-01-15 15:00:00 14.3 7 Oeste 10 Oeste 0 1026.4 0.9 55
2018-01-15 14:00:00 15 5 Sudoeste 11 Sudoeste 0 1025.6 -0.8 52
2018-01-15 13:00:00 15.6 3 Sudoeste 12 Sur 0 1024.8 -1.6 52
2018-01-15 12:00:00 15 4 Sur 14 Sudeste 0 1025.5 0.2 55
2018-01-15 11:00:00 13.7 7 Sudeste 14 Sudeste 0 1026.4 1.4 61
2018-01-15 10:00:00 13.1 7 Sudeste 14 Este 0 1026.4 1.6 59
2018-01-15 09:00:00 13.9 4 Nordeste 16 Norte 0 1025.3 1.3 55
2018-01-15 08:00:00 11.8 8 Norte 17 Norte 0 1025 1.9 61
2018-01-15 07:00:00 9.8 7 Nordeste 15 Nordeste 0 1024.8 2.3 69
2018-01-15 06:00:00 9.1 8 Norte 19 Nordeste 0 1024 1.8 71
2018-01-15 05:00:00 8.8 11 Norte 22 Nordeste 0 1023.1 1.1 72
2018-01-15 04:00:00 9.4 8 Norte 18 Norte 0 1022.5 0.8 71
2018-01-15 03:00:00 9.2 8 Norte 21 Norte 0 1022.2 0.5 71
2018-01-15 02:00:00 10.2 6 Norte 15 Norte 0 1022 0.5 71
2018-01-15 01:00:00 10.2 6 Norte 19 Norte 0 1021.7 0.4 70
2018-01-15 00:00:00 10.3 7 Norte 19 Este 0 1021.7 1 70
2018-01-14 23:00:00 9.8 8 Norte 18 Norte 0 1021.5 1.3 72
2018-01-14 22:00:00 9.9 4 Nordeste 20 Norte 0 1021.3 1.2 74
2018-01-14 21:00:00 9.5 6 Nordeste 15 Norte 0 1020.7 1 76
2018-01-14 20:00:00 9.6 3 Norte 8 Norte 0 1020.2 0.9 80
2018-01-14 19:00:00 9.8 4 Norte 8 Norte 0 1020.1 0.9 80
2018-01-14 18:00:00 10.4 4 Norte 7 Noroeste 0.1 1019.7 0.5 78
2018-01-14 17:00:00 10.8 3 Noroeste 13 Oeste 0 1019.3 0 77
2018-01-14 16:00:00 10.7 4 Oeste 15 Oeste 0 1019.2 0 78
2018-01-14 15:00:00 10.6 12 Oeste 24 Oeste 0.3 1019.2 -0.2 78
2018-01-14 14:00:00 11.2 18 Oeste 31 Oeste 0.1 1019.3 -0.8 80
2018-01-14 13:00:00 12.4 20 Oeste 30 Oeste 0 1019.2 -1.1 69
2018-01-14 12:00:00 13.4 8 Oeste 12 Oeste 0 1019.4 -1.6 63
2018-01-14 11:00:00 14.1 4 Sudoeste 9 Sudoeste 0 1020.1 -0.2 54
2018-01-14 10:00:00 15.2 2 Sudoeste 8 Oeste 0 1020.3 -0.4 50
2018-01-14 09:00:00 13.8 0 Calma 12 Nordeste 0 1021 0.5 53
2018-01-14 08:00:00 13.5 3 Norte 13 Nordeste 0 1020.3 0 54
2018-01-14 07:00:00 10.8 5 Nordeste 14 Norte 0 1020.7 0.4 58
2018-01-14 06:00:00 10.9 8 Norte 15 Norte 0 1020.5 0.2 56
2018-01-14 05:00:00 10.4 3 Norte 11 Norte 0 1020.3 -0.1 59
2018-01-14 04:00:00 10.5 3 Norte 12 Noroeste 0 1020.3 0 59
2018-01-14 03:00:00 10 3 Norte 7 Noroeste 0 1020.3 0.5 64
2018-01-14 02:00:00 11.2 4 Norte 11 Nordeste 0 1020.4 0.3 59
2018-01-14 01:00:00 10.8 4 Norte 15 Este 0 1020.3 -0.2 62
2018-01-14 00:00:00 12.3 8 Nordeste 21 Nordeste 0 1019.8 -0.6 57
2018-01-13 23:00:00 12.4 10 Norte 24 Norte 0 1020.1 -0.1 59
2018-01-13 22:00:00 11.5 4 Nordeste 12 Oeste 0 1020.5 0.6 72
2018-01-13 21:00:00 12.6 5 Oeste 19 Oeste 0 1020.4 0.8 69
2018-01-13 20:00:00 12.5 4 Noroeste 20 Oeste 0 1020.2 0.7 69
2018-01-13 19:00:00 12.6 7 Noroeste 39 Oeste 0 1019.9 0.3 75
2018-01-13 18:00:00 13 21 Oeste 41 Oeste 0 1019.6 0.3 77
2018-01-13 17:00:00 13 13 Oeste 34 Oeste 0 1019.5 0 76
2018-01-13 16:00:00 13.2 23 Oeste 49 Oeste 0 1019.6 0 75
2018-01-13 15:00:00 13.3 24 Oeste 40 Oeste 0 1019.3 -1.8 76
2018-01-13 14:00:00 13.2 21 Oeste 36 Oeste 0 1019.5 -1.9 73
2018-01-13 13:00:00 13.4 12 Oeste 23 Oeste 0 1019.6 -2.4 69
2018-01-13 12:00:00 12.9 19 Oeste 27 Oeste 0 1021.1 -0.9 75
2018-01-13 11:00:00 13.3 11 Noroeste 18 Oeste 0 1021.4 -1.4 70
2018-01-13 10:00:00 14.2 7 Sudoeste 13 Sudoeste 0 1022 -0.8 64
2018-01-13 09:00:00 14.2 0 Calma 3 Este 0 1022 -0.7 60
2018-01-13 08:00:00 11.2 2 Nordeste 6 Nordeste 0 1022.8 0.7 66
2018-01-13 07:00:00 10.1 0 Calma 7 Este 0 1022.8 0.5 73
2018-01-13 06:00:00 9.8 0 Calma 9 Nordeste 0 1022.7 -0.1 70
2018-01-13 05:00:00 10 4 Nordeste 9 Este 0 1022.1 -1.4 68
2018-01-13 04:00:00 10.2 0 Calma 6 Norte 0 1022.3 -1.5 65
2018-01-13 03:00:00 9.8 0 Calma 6 Norte 0 1022.8 -1.4 64
2018-01-13 02:00:00 10.2 3 Nordeste 8 Norte 0 1023.5 -1.5 64
2018-01-13 01:00:00 10.8 3 Norte 10 Nordeste 0 1023.8 -1.9 62
2018-01-13 00:00:00 10.7 3 Nordeste 6 Norte 0 1024.2 -1.4 69
2018-01-12 23:00:00 10.8 0 Calma 7 Nordeste 0 1025 -0.6 64
2018-01-12 22:00:00 11.6 0 Calma 5 Norte 0 1025.7 0.2 67
2018-01-12 21:00:00 11.8 0 Calma 8 Norte 0 1025.6 0.5 65
2018-01-12 20:00:00 11.6 5 Norte 7 Norte 0 1025.6 0.7 65
2018-01-12 19:00:00 12.3 3 Noroeste 6 Noroeste 0 1025.5 0.7 64
2018-01-12 18:00:00 12.8 0 Calma 8 Oeste 0 1025.1 0.3 65
2018-01-12 17:00:00 13.1 4 Oeste 8 Oeste 0 1024.9 0.7 64
2018-01-12 16:00:00 13.8 2 Norte 9 Noroeste 0 1024.8 1.2 57
2018-01-12 15:00:00 14.8 2 Oeste 10 Sur 0 1024.8 -0.3 55
2018-01-12 14:00:00 15.2 5 Sur 12 Sur 0 1024.2 -2.5 52
2018-01-12 13:00:00 14.9 7 Sudeste 11 Sudeste 0 1023.6 -3 49
2018-01-12 12:00:00 15.2 6 Sudeste 10 Sudeste 0 1025.1 -1.1 48
2018-01-12 11:00:00 15.2 6 Sudeste 10 Sudeste 0 1026.7 0.3 45
2018-01-12 10:00:00 16.3 3 Sudeste 10 Este 0 1026.6 0.3 34
2018-01-12 09:00:00 15.6 4 Nordeste 21 Norte 0 1026.2 0 37
2018-01-12 08:00:00 13 9 Norte 21 Nordeste 0 1026.4 0.9 39
2018-01-12 07:00:00 10.5 12 Norte 25 Nordeste 0 1026.3 1.1 43
2018-01-12 06:00:00 10.6 10 Norte 19 Norte 0 1026.2 0.7 43
2018-01-12 05:00:00 11.4 9 Norte 18 Norte 0 1025.5 -0.2 42
2018-01-12 04:00:00 11.2 9 Norte 19 Norte 0 1025.2 -0.3 43
2018-01-12 03:00:00 10.4 3 Norte 7 Norte 0 1025.5 0 45
2018-01-12 02:00:00 11.1 3 Norte 17 Norte 0 1025.7 0.1 43
2018-01-12 01:00:00 11.6 6 Norte 12 Nordeste 0 1025.5 0.1 42
2018-01-12 00:00:00 11.3 4 Norte 7 Este 0 1025.5 0.6 42
2018-01-11 23:00:00 11.4 0 Calma 12 Nordeste 0 1025.6 1.5 40
2018-01-11 22:00:00 13.7 6 Norte 13 Norte 0 1025.4 1.3 36
2018-01-11 21:00:00 13.6 3 Nordeste 12 Norte 0 1024.9 1.2 36
2018-01-11 20:00:00 15.2 8 Norte 19 Noroeste 0 1024.1 1.1 34
2018-01-11 19:00:00 13.4 3 Norte 15 Nordeste 0 1024.1 2.6 43
2018-01-11 18:00:00 14.1 5 Norte 13 Norte 0 1023.7 3.9 48
2018-01-11 17:00:00 14.9 0 Calma 31 Noroeste 0 1023 2.9 49
2018-01-11 16:00:00 16.3 11 Sudeste 35 Sudeste 0 1021.5 1.3 43
2018-01-11 15:00:00 18.1 3 Sudoeste 40 Oeste 0 1019.8 -0.8 41
2018-01-11 14:00:00 16 20 Oeste 45 Sudoeste 0 1020.1 -1.8 48
2018-01-11 13:00:00 15.4 27 Oeste 44 Oeste 0 1020.2 -3 49
2018-01-11 12:00:00 17.1 5 Nordeste 16 Este 0 1020.6 -2.1 38
2018-01-11 11:00:00 17 3 Este 9 Este 0 1021.9 -0.9 40
2018-01-11 10:00:00 16.4 5 Sudoeste 9 Sur 0 1023.2 0.2 42
2018-01-11 09:00:00 16 3 Sudeste 9 Este 0 1022.7 -0.3 48
2018-01-11 08:00:00 13 3 Nordeste 7 Este 0 1022.8 0 55
2018-01-11 07:00:00 11 0 Calma 8 Este 0 1023 1 63
2018-01-11 06:00:00 11.4 4 Nordeste 10 Este 0 1023 1.3 59
2018-01-11 05:00:00 11.3 3 Nordeste 9 Norte 0 1022.8 1.3 55
2018-01-11 04:00:00 11.9 3 Nordeste 10 Este 0 1022 1.2 51
2018-01-11 03:00:00 12.4 3 Norte 8 Norte 0 1021.7 1.6 53
2018-01-11 02:00:00 13.1 2 Norte 10 Noroeste 0 1021.5 0.9 50
2018-01-11 01:00:00 15.1 5 Noroeste 30 Sudoeste 0 1020.8 -0.7 46
2018-01-11 00:00:00 16 18 Oeste 54 Oeste 0 1020.1 -0.6 50
2018-01-10 23:00:00 15.6 33 Oeste 57 Oeste 0 1020.6 -0.8 67
2018-01-10 22:00:00 14.9 31 Noroeste 60 Oeste 0 1021.5 1 78
2018-01-10 21:00:00 15.2 30 Oeste 49 Oeste 0 1020.7 0.4 71
2018-01-10 20:00:00 15.3 25 Oeste 58 Sudoeste 0 1021.4 1.4 64
2018-01-10 19:00:00 16.4 32 Oeste 65 Oeste 0 1020.5 1.5 56
2018-01-10 18:00:00 16.6 15 Oeste 47 Oeste 0 1020.3 2.3 50
2018-01-10 17:00:00 17.4 17 Oeste 48 Noroeste 0 1020 2.4 45
2018-01-10 16:00:00 18.2 0 Calma 8 Este 0 1019 1.1 51
2018-01-10 15:00:00 18.5 3 Sudeste 11 Este 0 1018 -0.9 50
2018-01-10 14:00:00 17.2 4 Sudeste 13 Este 0 1017.6 -2.1 61
2018-01-10 13:00:00 16.7 5 Sudeste 12 Sudeste 0 1017.9 -2.5 64
2018-01-10 12:00:00 15.8 8 Sudeste 15 Sudeste 0 1018.9 -2.6 68
2018-01-10 11:00:00 15.6 7 Sudeste 16 Sudeste 0 1019.7 -1.5 67
2018-01-10 10:00:00 15.9 7 Nordeste 24 Este 0 1020.4 -0.4 64
2018-01-10 09:00:00 13.3 6 Nordeste 15 Norte 0 1021.5 0.8 81
2018-01-10 08:00:00 12 0 Calma 21 Oeste 0 1021.2 0.9 89
2018-01-10 07:00:00 12.6 11 Oeste 28 Oeste 0 1020.8 0.2 91
2018-01-10 06:00:00 12.4 17 Oeste 28 Oeste 0 1020.7 0.3 93
2018-01-10 05:00:00 12.1 9 Oeste 24 Oeste 0 1020.3 -0.7 95
2018-01-10 04:00:00 11.7 7 Oeste 14 Oeste 0 1020.6 -0.8 95
2018-01-10 03:00:00 11.8 5 Oeste 9 Oeste 0.3 1020.4 -1.7 93
2018-01-10 02:00:00 11.6 3 Oeste 7 Oeste 0 1021 -1.8 94
2018-01-10 01:00:00 11.3 0 Calma 4 Norte 0.2 1021.4 -1.8 94
2018-01-10 00:00:00 11.4 0 Calma 13 Oeste 0.5 1022.1 -0.9 94
2018-01-09 23:00:00 11.7 6 Oeste 14 Oeste 0.8 1022.8 0.2 94
2018-01-09 22:00:00 11.7 9 Oeste 26 Oeste 1 1023.2 0.7 93
2018-01-09 21:00:00 13.1 14 Oeste 22 Oeste 0 1023 0.6 76
2018-01-09 20:00:00 13.2 11 Oeste 18 Oeste 0 1022.6 0.7 66
2018-01-09 19:00:00 12.3 0 Calma 7 Oeste 0 1022.5 1.3 65
2018-01-09 18:00:00 12.8 0 Calma 22 Oeste 0 1022.4 1.1 62
2018-01-09 17:00:00 13.1 16 Oeste 27 Oeste 0 1021.9 1 65
2018-01-09 16:00:00 13.1 14 Oeste 31 Oeste 0 1021.2 -0.1 61
2018-01-09 15:00:00 12.8 18 Oeste 38 Oeste 0 1021.3 -0.1 67
2018-01-09 14:00:00 12.9 24 Oeste 39 Oeste 0 1020.9 -1.5 62
2018-01-09 13:00:00 12.7 23 Oeste 38 Oeste 0 1021.3 -1.4 62
2018-01-09 12:00:00 13 22 Oeste 34 Oeste 0 1021.4 0.7 61
2018-01-09 11:00:00 12.9 14 Oeste 25 Noroeste 0 1022.4 1.4 62
2018-01-09 10:00:00 13 12 Sudoeste 18 Oeste 0 1022.7 1.1 60
2018-01-09 09:00:00 15.6 0 Calma 6 Oeste 0 1020.7 -0.3 53
2018-01-09 08:00:00 13.1 0 Calma 7 Norte 0 1021 1.1 54
2018-01-09 07:00:00 9.3 2 Norte 8 Norte 0 1021.6 2.4 68
2018-01-09 06:00:00 8.4 3 Norte 9 Norte 0 1021 2.1 71
2018-01-09 05:00:00 8.8 3 Nordeste 8 Nordeste 0 1019.9 1.1 69
2018-01-09 04:00:00 8.9 4 Norte 8 Norte 0 1019.2 1 67
2018-01-09 03:00:00 9.2 4 Norte 12 Norte 0 1018.9 0.9 65
2018-01-09 02:00:00 9.4 4 Nordeste 9 Nordeste 0 1018.8 0.9 67
2018-01-09 01:00:00 9.3 0 Calma 5 Norte 0 1018.2 0.9 75
2018-01-09 00:00:00 9.6 3 Nordeste 5 Nordeste 0 1018 1.5 71
2018-01-08 23:00:00 9.6 0 Calma 11 Norte 0 1017.9 1.6 69
2018-01-08 22:00:00 10.2 6 Norte 18 Nordeste 0 1017.3 1.4 69
2018-01-08 21:00:00 10 4 Nordeste 12 Nordeste 0 1016.5 1.1 71
2018-01-08 20:00:00 10.2 0 Calma 5 Norte 0 1016.3 1.9 73
2018-01-08 19:00:00 10.4 0 Calma 8 Oeste 0 1015.9 2.2 77
2018-01-08 18:00:00 10.4 8 Oeste 24 Oeste 0 1015.4 3 82
2018-01-08 17:00:00 10.8 15 Oeste 23 Oeste 0 1014.4 2.3 82
2018-01-08 16:00:00 11.2 14 Oeste 24 Oeste 0 1013.7 2.4 76
2018-01-08 15:00:00 12.5 0 Calma 9 Norte 0 1012.4 0.6 61
2018-01-08 14:00:00 12.4 4 Nordeste 12 Sur 0 1012.1 0.5 57
2018-01-08 13:00:00 13.3 7 Sudeste 12 Sudeste 0 1011.3 -1 54
2018-01-08 12:00:00 13 6 Sudeste 10 Sudeste 0 1011.8 -1 53
2018-01-08 11:00:00 13.8 2 Este 13 Este 0 1011.6 -0.7 49
2018-01-08 10:00:00 12.4 3 Nordeste 14 Norte 0 1012.3 0.2 51
2018-01-08 09:00:00 11.3 8 Norte 16 Norte 0 1012.8 1.7 54
2018-01-08 08:00:00 9.3 4 Nordeste 12 Norte 0.1 1012.3 1.6 65
2018-01-08 07:00:00 9.5 5 Oeste 17 Noroeste 0 1012.1 2 76
2018-01-08 06:00:00 9.1 3 Nordeste 9 Norte 0 1011.1 1.4 62
2018-01-08 05:00:00 8.9 6 Nordeste 14 Nordeste 0 1010.7 1.4 60
2018-01-08 04:00:00 8.7 8 Norte 16 Norte 0 1010.1 1.2 62
2018-01-08 03:00:00 8.3 2 Este 9 Nordeste 0 1009.7 1.1 65
2018-01-08 02:00:00 8.8 5 Norte 12 Nordeste 0 1009.3 0.3 64
2018-01-08 01:00:00 9 4 Norte 12 Norte 0 1008.9 0.4 64
2018-01-08 00:00:00 9.1 2 Norte 17 Este 0.3 1008.6 0.4 65
2018-01-07 23:00:00 9 3 Este 9 Este 0.6 1009 1.3 66
2018-01-07 22:00:00 10 2 Norte 8 Nordeste 0 1008.5 1.3 55
2018-01-07 21:00:00 10 0 Calma 12 Oeste 0 1008.2 1.5 54
2018-01-07 20:00:00 10.3 6 Oeste 10 Oeste 0 1007.7 1.5 53
2018-01-07 19:00:00 9.9 5 Norte 14 Oeste 0 1007.2 1.6 51
2018-01-07 18:00:00 10.6 7 Oeste 22 Oeste 0 1006.7 1.4 50
2018-01-07 17:00:00 11.2 14 Oeste 24 Oeste 0 1006.2 2.3 49
2018-01-07 16:00:00 11.3 14 Oeste 24 Noroeste 0 1005.6 2.2 53
2018-01-07 15:00:00 11.5 17 Oeste 31 Oeste 0 1005.3 1.5 50
2018-01-07 14:00:00 12 17 Sudoeste 31 Sudoeste 0 1003.9 0 50
2018-01-07 13:00:00 12.2 14 Oeste 30 Oeste 0 1003.4 -0.9 49
2018-01-07 12:00:00 12 19 Noroeste 31 Noroeste 0 1003.8 -0.4 48
2018-01-07 11:00:00 12.2 14 Oeste 22 Noroeste 0 1003.9 0.3 43
2018-01-07 10:00:00 11.9 9 Oeste 20 Oeste 0 1004.3 1.1 43
2018-01-07 09:00:00 11.2 11 Oeste 20 Oeste 0 1004.2 1.9 44
2018-01-07 08:00:00 10.8 8 Oeste 14 Oeste 0 1003.6 2.4 47
2018-01-07 07:00:00 9.3 8 Nordeste 21 Norte 0 1003.2 2.4 47
2018-01-07 06:00:00 9.4 5 Nordeste 17 Este 0 1002.3 1.4 47
2018-01-07 05:00:00 8.7 11 Norte 24 Norte 0 1001.2 -0.5 51
2018-01-07 04:00:00 8.5 3 Nordeste 11 Nordeste 0 1000.8 -0.9 52
2018-01-07 03:00:00 8.4 5 Norte 13 Nordeste 0 1000.9 -0.4 51
2018-01-07 02:00:00 8.9 3 Norte 14 Norte 0 1001.7 0.3 50
2018-01-07 01:00:00 8.8 0 Calma 14 Noroeste 0 1001.7 0.3 54
2018-01-07 00:00:00 9.7 5 Norte 16 Norte 0 1001.3 0.3 53
2018-01-06 23:00:00 9.3 0 Calma 12 Nordeste 0 1001.4 1.1 58
2018-01-06 22:00:00 9.5 2 Norte 14 Oeste 0 1001.4 1.3 55
2018-01-06 21:00:00 11 7 Noroeste 35 Oeste 0 1001 1.8 50
2018-01-06 20:00:00 11.7 21 Oeste 57 Oeste 0 1000.3 1.9 53
2018-01-06 19:00:00 12.3 29 Oeste 59 Oeste 0 1000.1 2.1 56
2018-01-06 18:00:00 12.2 33 Oeste 64 Oeste 0 999.2 1.9 59
2018-01-06 17:00:00 12.5 36 Oeste 68 Oeste 0 998.4 2.1 59
2018-01-06 16:00:00 12.6 32 Oeste 59 Oeste 0 998 0.8 61
2018-01-06 15:00:00 12.3 30 Oeste 53 Oeste 0 997.3 -0.2 62
2018-01-06 14:00:00 13.5 12 Oeste 45 Noroeste 0 996.3 -1.8 60
2018-01-06 13:00:00 12.5 15 Oeste 26 Noroeste 0 997.2 -1.2 77
2018-01-06 12:00:00 13.1 15 Oeste 26 Oeste 0 997.5 -0.2 75
2018-01-06 11:00:00 13.5 12 Oeste 46 Oeste 0 998.1 -1.2 77
2018-01-06 10:00:00 13.7 30 Oeste 47 Oeste 3.3 998.4 -2 80
2018-01-06 09:00:00 13.7 8 Nordeste 22 Este 0.2 997.7 -2.7 86
2018-01-06 08:00:00 12.6 6 Nordeste 16 Este 0.1 999.3 -1.3 82
2018-01-06 07:00:00 13.4 3 Norte 8 Norte 0.1 1000.4 -1.3 72
2018-01-06 06:00:00 13.8 3 Nordeste 10 Noroeste 0 1000.4 -3 62
2018-01-06 05:00:00 14.7 4 Nordeste 9 Norte 0 1000.6 -3.7 56
2018-01-06 04:00:00 13.9 4 Norte 10 Este 0 1001.7 -3.6 62
2018-01-06 03:00:00 13.3 2 Este 8 Este 0 1003.4 -2.9 65
2018-01-06 02:00:00 13.1 3 Nordeste 19 Oeste 0 1004.3 -3.6 62
2018-01-06 01:00:00 14.7 7 Oeste 19 Oeste 0 1005.3 -3.9 67
2018-01-06 00:00:00 14.8 14 Oeste 30 Oeste 0 1006.3 -3.6 67
2018-01-05 23:00:00 14.9 19 Oeste 38 Oeste 0 1007.9 -2.5 66
2018-01-05 22:00:00 15 9 Oeste 24 Oeste 0 1009.2 -1.4 67
2018-01-05 21:00:00 13.9 3 Noroeste 12 Noroeste 0 1009.9 -0.8 75
2018-01-05 20:00:00 13.8 3 Nordeste 11 Oeste 0 1010.4 -0.1 75
2018-01-05 19:00:00 14.8 4 Oeste 18 Oeste 0 1010.6 -0.3 75
2018-01-05 18:00:00 15.3 15 Oeste 32 Oeste 0 1010.7 -0.2 78
2018-01-05 17:00:00 15.9 16 Oeste 36 Oeste 0 1010.5 -0.8 72
2018-01-05 16:00:00 15.4 24 Oeste 42 Oeste 0 1010.9 -0.9 82
2018-01-05 15:00:00 15.5 28 Oeste 49 Sudoeste 0 1010.9 -1.8 82
2018-01-05 14:00:00 15.7 30 Oeste 48 Oeste 0 1011.3 -3.2 79
2018-01-05 13:00:00 16 27 Oeste 48 Oeste 0 1011.8 -3.9 75
2018-01-05 12:00:00 16.2 24 Oeste 37 Oeste 0 1012.7 -2.6 75
2018-01-05 11:00:00 16.2 19 Oeste 31 Sudoeste 0 1014.5 -1.4 69
2018-01-05 10:00:00 16.6 7 Oeste 10 Sudoeste 0 1015.7 -1.7 65
2018-01-05 09:00:00 17.9 0 Calma 5 Este 0 1015.3 -2.7 56
2018-01-05 08:00:00 15.1 2 Este 8 Este 0 1015.9 -2.2 70
2018-01-05 07:00:00 12.9 4 Nordeste 7 Norte 0 1017.4 -0.8 80
2018-01-05 06:00:00 11.9 2 Norte 6 Nordeste 0 1018 -1.1 89
2018-01-05 05:00:00 12.1 3 Norte 7 Norte 0 1018.1 -1.9 91
2018-01-05 04:00:00 12.4 4 Norte 9 Noroeste 0 1018.2 -1.9 88
2018-01-05 03:00:00 12.4 0 Calma 6 Noroeste 0 1019.1 -2 89
2018-01-05 02:00:00 13.1 0 Calma 10 Noroeste 0 1020 -2.2 91
2018-01-05 01:00:00 12.5 3 Norte 6 Norte 0 1020.1 -2.4 87
2018-01-05 00:00:00 12.5 2 Norte 6 Oeste 0 1021.1 -1.9 88
2018-01-04 23:00:00 13.9 2 Oeste 15 Este 0 1022.2 -0.9 82
2018-01-04 22:00:00 13.3 0 Calma 12 Este 0 1022.5 -0.2 89
2018-01-04 21:00:00 14 0 Calma 7 Este 0 1023 -0.3 91
2018-01-04 20:00:00 13.8 0 Calma 5 Nordeste 0 1023.1 -0.5 88
2018-01-04 19:00:00 14.3 0 Calma 5 Nordeste 0 1022.7 -0.9 86
2018-01-04 18:00:00 14.5 0 Calma 3 Este 0 1023.3 0.2 86
2018-01-04 17:00:00 14.9 0 Calma 8 Oeste 0 1023.6 -- 86
2018-01-04 16:00:00 15.9 5 Oeste 14 Sudoeste 0 1023.6 -- 82
2018-01-04 15:00:00 16.8 7 Sudoeste 14 Sudoeste 0 1023.1 -2.5 76
2018-01-04 14:00:00 -- -- -- -- -- -- -- -- --
2018-01-04 13:00:00 -- -- -- -- -- -- -- -- --
2018-01-04 12:00:00 16.2 9 Sudoeste 17 Sudoeste 0 1025.6 -1.5 84
2018-01-04 11:00:00 15.6 11 Oeste 17 Oeste 0 1027.2 -1.7 84
2018-01-04 10:00:00 17.1 0 Calma 5 Sur 0 1027.3 -1.6 77
2018-01-04 09:00:00 15 0 Calma 4 Oeste 0 1027.1 -1.8 94
2018-01-04 08:00:00 12.6 3 Oeste 7 Oeste 0 1028.9 0.2 95
2018-01-04 07:00:00 11.3 0 Calma 5 Norte 0 1028.9 0.2 92
2018-01-04 06:00:00 12 2 Norte 8 Noroeste 0 1028.9 0.1 89
2018-01-04 05:00:00 12 0 Calma 6 Norte 0 1028.7 -0.1 88
2018-01-04 04:00:00 12.3 0 Calma 5 Norte 0 1028.7 -0.1 89
2018-01-04 03:00:00 12.3 0 Calma 4 Norte 0 1028.8 -0.1 88
2018-01-04 02:00:00 12.5 0 Calma 4 Norte 0 1028.8 -0.8 87
2018-01-04 01:00:00 12.6 0 Calma 6 Norte 0 1028.8 -1.5 81
2018-01-04 00:00:00 13.1 3 Norte 6 Norte 0 1028.9 -1.1 76
2018-01-03 23:00:00 13.3 0 Calma 6 Nordeste 0 1029.6 -0.3 76
2018-01-03 22:00:00 13.8 0 Calma 6 Nordeste 0 1030.3 0.8 81
2018-01-03 21:00:00 13.8 2 Norte 6 Este 0 1030 0.6 82
2018-01-03 20:00:00 13.7 0 Calma 6 Oeste 0 1029.9 0.7 82
2018-01-03 19:00:00 14.5 0 Calma 8 Oeste 0 1029.5 0.5 85
2018-01-03 18:00:00 14.7 0 Calma 4 Oeste 0 1029.4 1.9 89
2018-01-03 17:00:00 -- -- -- -- -- -- -- -- --
2018-01-03 16:00:00 -- -- -- -- -- -- -- -- --
2018-01-03 15:00:00 -- -- -- -- -- -- -- -- --
2018-01-03 14:00:00 -- -- -- -- -- -- -- -- --
2018-01-03 13:00:00 -- -- -- -- -- -- -- -- --
2018-01-03 12:00:00 -- -- -- -- -- -- -- -- --
2018-01-03 11:00:00 -- -- -- -- -- -- -- -- --
2018-01-03 10:00:00 -- -- -- -- -- -- -- -- --
2018-01-03 09:00:00 -- -- -- -- -- -- -- -- --
2018-01-03 08:00:00 -- -- -- -- -- -- -- -- --
2018-01-03 07:00:00 -- -- -- -- -- -- -- -- --
2018-01-03 06:00:00 -- -- -- -- -- -- -- -- --
2018-01-03 05:00:00 -- -- -- -- -- -- -- -- --
2018-01-03 04:00:00 -- -- -- -- -- -- -- -- --
2018-01-03 03:00:00 -- -- -- -- -- -- -- -- --
2018-01-03 02:00:00 -- -- -- -- -- -- -- -- --
2018-01-03 01:00:00 -- -- -- -- -- -- -- -- --
2018-01-03 00:00:00 -- -- -- -- -- -- -- -- --
2018-01-02 23:00:00 -- -- -- -- -- -- -- -- --
2018-01-02 22:00:00 -- -- -- -- -- -- -- -- --
2018-01-02 21:00:00 -- -- -- -- -- -- -- -- --
2018-01-02 20:00:00 -- -- -- -- -- -- -- -- --
2018-01-02 19:00:00 -- -- -- -- -- -- -- -- --
2018-01-02 18:00:00 -- -- -- -- -- -- -- -- --
2018-01-02 17:00:00 -- -- -- -- -- -- -- -- --
2018-01-02 16:00:00 -- -- -- -- -- -- -- -- --
2018-01-02 15:00:00 -- -- -- -- -- -- -- -- --
2018-01-02 14:00:00 -- -- -- -- -- -- -- -- --
2018-01-02 13:00:00 -- -- -- -- -- -- -- -- --
2018-01-02 12:00:00 -- -- -- -- -- -- -- -- --
2018-01-02 11:00:00 -- -- -- -- -- -- -- -- --
2018-01-02 10:00:00 -- -- -- -- -- -- -- -- --
2018-01-02 09:00:00 -- -- -- -- -- -- -- -- --
2018-01-02 08:00:00 -- -- -- -- -- -- -- -- --
2018-01-02 07:00:00 -- -- -- -- -- -- -- -- --
2018-01-02 06:00:00 -- -- -- -- -- -- -- -- --
2018-01-02 05:00:00 -- -- -- -- -- -- -- -- --
2018-01-02 04:00:00 -- -- -- -- -- -- -- -- --
2018-01-02 03:00:00 -- -- -- -- -- -- -- -- --
2018-01-02 02:00:00 -- -- -- -- -- -- -- -- --
2018-01-02 01:00:00 -- -- -- -- -- -- -- -- --
2018-01-02 00:00:00 -- -- -- -- -- -- -- -- --
2018-01-01 23:00:00 -- -- -- -- -- -- -- -- --
2018-01-01 22:00:00 -- -- -- -- -- -- -- -- --
2018-01-01 21:00:00 -- -- -- -- -- -- -- -- --
2018-01-01 20:00:00 -- -- -- -- -- -- -- -- --
2018-01-01 19:00:00 -- -- -- -- -- -- -- -- --
2018-01-01 18:00:00 -- -- -- -- -- -- -- -- --
2018-01-01 17:00:00 -- -- -- -- -- -- -- -- --
2018-01-01 16:00:00 -- -- -- -- -- -- -- -- --
2018-01-01 15:00:00 -- -- -- -- -- -- -- -- --
2018-01-01 14:00:00 -- -- -- -- -- -- -- -- --
2018-01-01 13:00:00 -- -- -- -- -- -- -- -- --
2018-01-01 12:00:00 -- -- -- -- -- -- -- -- --
2018-01-01 11:00:00 -- -- -- -- -- -- -- -- --
2018-01-01 10:00:00 -- -- -- -- -- -- -- -- --
2018-01-01 09:00:00 -- -- -- -- -- -- -- -- --
2018-01-01 08:00:00 -- -- -- -- -- -- -- -- --
2018-01-01 07:00:00 -- -- -- -- -- -- -- -- --
2018-01-01 06:00:00 -- -- -- -- -- -- -- -- --
2018-01-01 05:00:00 -- -- -- -- -- -- -- -- --
2018-01-01 04:00:00 -- -- -- -- -- -- -- -- --
2018-01-01 03:00:00 -- -- -- -- -- -- -- -- --
2018-01-01 02:00:00 -- -- -- -- -- -- -- -- --
2018-01-01 01:00:00 -- -- -- -- -- -- -- -- --
2018-01-01 00:00:00 -- -- -- -- -- -- -- -- --
2017-12-31 23:00:00 -- -- -- -- -- -- -- -- --
2017-12-31 22:00:00 -- -- -- -- -- -- -- -- --
2017-12-31 21:00:00 -- -- -- -- -- -- -- -- --
2017-12-31 20:00:00 -- -- -- -- -- -- -- -- --
2017-12-31 19:00:00 -- -- -- -- -- -- -- -- --
2017-12-31 18:00:00 -- -- -- -- -- -- -- -- --
2017-12-31 17:00:00 -- -- -- -- -- -- -- -- --
2017-12-31 16:00:00 -- -- -- -- -- -- -- -- --
2017-12-31 15:00:00 -- -- -- -- -- -- -- -- --
2017-12-31 14:00:00 -- -- -- -- -- -- -- -- --
2017-12-31 13:00:00 -- -- -- -- -- -- -- -- --
2017-12-31 12:00:00 -- -- -- -- -- -- -- -- --
2017-12-31 11:00:00 -- -- -- -- -- -- -- -- --
2017-12-31 10:00:00 -- -- -- -- -- -- -- -- --
2017-12-31 09:00:00 -- -- -- -- -- -- -- -- --
2017-12-31 08:00:00 -- -- -- -- -- -- -- -- --
2017-12-31 07:00:00 -- -- -- -- -- -- -- -- --
2017-12-31 06:00:00 -- -- -- -- -- -- -- -- --
2017-12-31 05:00:00 -- -- -- -- -- -- -- -- --
2017-12-31 04:00:00 -- -- -- -- -- -- -- -- --
2017-12-31 03:00:00 -- -- -- -- -- -- -- -- --
2017-12-31 02:00:00 -- -- -- -- -- -- -- -- --
2017-12-31 01:00:00 -- -- -- -- -- -- -- -- --